Time;durP1;ratioP1;P1;durP2;ratioP2;P2;SDS_P1;SDS_P2;PMS_P1;PMS_P2;Temp;Humidity;BMP_temperature;BMP_pressure;BME280_temperature;BME280_humidity;BME280_pressure;Samples;Min_cycle;Max_cycle;Signal;HPM_P1;HPM_P2
2023/07/23 00:00:51;;;;;;;4.43;3.60;;;;;;;15.64;60.51;100588.97;4937385;28;20209;-72
2023/07/23 00:03:17;;;;;;;5.40;3.50;;;;;;;15.65;61.60;100585.97;4938152;28;20217;-72
2023/07/23 00:05:44;;;;;;;3.70;3.10;;;;;;;15.67;61.18;100582.91;4937414;28;21333;-72
2023/07/23 00:08:13;;;;;;;5.30;3.70;;;;;;;15.65;59.87;100582.53;4939960;28;21299;-72
2023/07/23 00:10:39;;;;;;;4.50;3.70;;;;;;;15.65;60.83;100577.97;4938514;28;20205;-73
2023/07/23 00:13:06;;;;;;;4.43;3.30;;;;;;;15.67;61.50;100580.25;4937814;28;21452;-72
2023/07/23 00:15:32;;;;;;;4.50;3.03;;;;;;;15.67;61.22;100573.06;4936990;28;20303;-72
2023/07/23 00:17:59;;;;;;;4.10;3.50;;;;;;;15.68;61.62;100571.16;4938666;28;20229;-72
2023/07/23 00:20:25;;;;;;;4.83;3.63;;;;;;;15.69;60.56;100575.34;4937888;28;20901;-73
2023/07/23 00:22:51;;;;;;;5.07;3.73;;;;;;;15.68;60.89;100571.91;4938513;28;20223;-72
2023/07/23 00:25:19;;;;;;;4.93;3.60;;;;;;;15.69;59.71;100570.03;4937199;28;20688;-72
2023/07/23 00:27:46;;;;;;;5.43;3.87;;;;;;;15.70;60.49;100566.25;4937403;28;20240;-72
2023/07/23 00:30:12;;;;;;;4.60;3.27;;;;;;;15.74;60.20;100572.38;4936179;28;20209;-73
2023/07/23 00:32:39;;;;;;;4.70;3.40;;;;;;;15.77;60.79;100563.66;4939418;28;20221;-73
2023/07/23 00:35:06;;;;;;;5.37;3.90;;;;;;;15.80;60.54;100553.09;4938282;28;20220;-72
2023/07/23 00:37:32;;;;;;;4.93;3.63;;;;;;;15.82;60.04;100555.38;4952106;28;20498;-72
2023/07/23 00:39:59;;;;;;;4.20;3.20;;;;;;;15.84;60.23;100545.88;4937440;28;20220;-72
2023/07/23 00:42:26;;;;;;;5.03;3.43;;;;;;;15.85;60.51;100547.44;4933072;28;20204;-72
2023/07/23 00:44:53;;;;;;;4.97;3.50;;;;;;;15.87;60.56;100539.84;4938143;28;20711;-72
2023/07/23 00:47:19;;;;;;;4.50;3.53;;;;;;;15.88;60.55;100529.97;4938931;28;20237;-73
2023/07/23 00:49:46;;;;;;;4.67;3.20;;;;;;;15.89;60.32;100542.91;4935994;28;20218;-72
2023/07/23 00:52:14;;;;;;;4.70;3.53;;;;;;;15.88;60.06;100527.31;4937214;28;20205;-73
2023/07/23 00:54:41;;;;;;;4.40;3.50;;;;;;;15.91;60.09;100529.25;4932973;28;20206;-72
2023/07/23 00:57:07;;;;;;;3.70;3.30;;;;;;;15.89;59.37;100532.25;4935574;28;20225;-72
2023/07/23 00:59:35;;;;;;;4.40;3.50;;;;;;;15.92;59.53;100530.78;4939883;28;20205;-72
2023/07/23 01:02:02;;;;;;;4.23;3.30;;;;;;;15.94;60.08;100529.28;4938645;28;20251;-73
2023/07/23 01:04:29;;;;;;;5.53;3.63;;;;;;;15.97;60.16;100525.13;4935804;28;20324;-73
2023/07/23 01:06:57;;;;;;;4.30;3.00;;;;;;;15.98;59.75;100522.09;4938255;28;21700;-73
2023/07/23 01:09:25;;;;;;;4.83;3.63;;;;;;;16.00;60.12;100517.19;4937021;28;20228;-73
2023/07/23 01:11:53;;;;;;;5.60;3.23;;;;;;;16.02;59.63;100514.94;4937079;28;20209;-72
2023/07/23 01:14:19;;;;;;;4.80;3.50;;;;;;;16.04;60.04;100518.00;4937825;28;20231;-72
2023/07/23 01:16:48;;;;;;;5.93;3.80;;;;;;;16.07;59.16;100508.50;4936145;28;20228;-73
2023/07/23 01:19:15;;;;;;;5.77;3.77;;;;;;;16.08;60.05;100500.16;4936505;28;20224;-72
2023/07/23 01:21:42;;;;;;;4.27;2.90;;;;;;;16.11;60.21;100498.66;4935787;28;21188;-73
2023/07/23 01:24:10;;;;;;;7.87;3.63;;;;;;;16.13;58.86;100502.50;4936054;28;20947;-72
2023/07/23 01:26:37;;;;;;;4.07;3.33;;;;;;;16.15;59.24;100505.56;4939132;28;20247;-73
2023/07/23 01:29:03;;;;;;;5.93;3.77;;;;;;;16.17;59.36;100499.88;4934789;28;20236;-73
2023/07/23 01:31:29;;;;;;;7.63;3.87;;;;;;;16.17;60.01;100492.66;4934329;28;20793;-72
2023/07/23 01:33:56;;;;;;;4.17;3.37;;;;;;;16.19;59.71;100489.63;4937099;28;20224;-73
2023/07/23 01:36:23;;;;;;;4.23;3.30;;;;;;;16.21;60.36;100487.38;4936095;28;20225;-72
2023/07/23 01:38:49;;;;;;;3.80;3.20;;;;;;;16.23;60.24;100482.44;4937730;28;20354;-72
2023/07/23 01:41:17;;;;;;;4.37;3.10;;;;;;;16.24;59.77;100484.72;4930904;28;20217;-72
2023/07/23 01:43:44;;;;;;;5.70;3.43;;;;;;;16.25;59.60;100491.59;4933928;28;20672;-72
2023/07/23 01:46:10;;;;;;;4.37;3.53;;;;;;;16.27;59.67;100481.34;4950548;28;20760;-73
2023/07/23 01:48:36;;;;;;;4.37;3.57;;;;;;;16.29;60.07;100476.41;4936837;28;20709;-73
2023/07/23 01:51:03;;;;;;;4.23;3.43;;;;;;;16.31;59.11;100482.13;4950534;28;20209;-72
2023/07/23 01:53:29;;;;;;;4.60;3.20;;;;;;;16.33;59.04;100477.22;4937431;28;20847;-72
2023/07/23 01:55:57;;;;;;;5.67;3.37;;;;;;;16.34;59.00;100476.09;4934339;28;20210;-73
2023/07/23 01:58:25;;;;;;;4.23;3.40;;;;;;;16.36;59.25;100468.47;4933564;28;20234;-73
2023/07/23 02:00:57;;;;;;;5.20;3.60;;;;;;;16.36;59.54;100468.47;4934109;28;20209;-72
2023/07/23 02:03:24;;;;;;;4.70;3.73;;;;;;;16.38;59.21;100473.44;4935686;28;21146;-72
2023/07/23 02:05:55;;;;;;;5.30;3.83;;;;;;;16.38;59.88;100471.56;4935033;28;20885;-73
2023/07/23 02:08:21;;;;;;;6.10;3.23;;;;;;;16.39;60.13;100459.78;4935608;28;20221;-73
2023/07/23 02:10:48;;;;;;;4.20;3.47;;;;;;;16.40;60.23;100465.91;4934763;28;20209;-73
2023/07/23 02:13:14;;;;;;;4.57;3.43;;;;;;;16.41;60.31;100467.44;4935929;28;20224;-73
2023/07/23 02:15:43;;;;;;;5.70;3.37;;;;;;;16.42;60.03;100463.63;4936449;28;20211;-73
2023/07/23 02:18:09;;;;;;;4.87;3.77;;;;;;;16.41;60.54;100457.50;4936524;28;20717;-72
2023/07/23 02:20:36;;;;;;;3.67;3.20;;;;;;;16.42;60.07;100463.63;4933744;28;20221;-72
2023/07/23 02:23:02;;;;;;;5.20;2.90;;;;;;;16.43;60.21;100457.94;4934777;28;20299;-72
2023/07/23 02:25:29;;;;;;;4.90;3.27;;;;;;;16.43;60.10;100452.59;4935754;28;20308;-73
2023/07/23 02:27:55;;;;;;;7.10;3.47;;;;;;;16.45;60.29;100449.56;4937601;28;20251;-73
2023/07/23 02:30:21;;;;;;;4.77;3.37;;;;;;;16.44;59.91;100451.47;4936904;28;20419;-73
2023/07/23 02:32:49;;;;;;;4.10;3.00;;;;;;;16.47;60.06;100448.06;4942502;28;20220;-73
2023/07/23 02:35:15;;;;;;;3.83;3.10;;;;;;;16.49;59.53;100447.69;4938906;28;20803;-72
2023/07/23 02:37:42;;;;;;;4.60;3.60;;;;;;;16.51;59.68;100443.53;4938893;28;20672;-73
2023/07/23 02:40:09;;;;;;;6.67;3.07;;;;;;;16.55;59.71;100454.97;4940162;28;20205;-73
2023/07/23 02:42:35;;;;;;;3.70;2.97;;;;;;;16.57;60.15;100452.72;4934965;28;20590;-72
2023/07/23 02:45:03;;;;;;;4.40;3.07;;;;;;;16.59;59.83;100450.47;4941151;28;20234;-73
2023/07/23 02:47:30;;;;;;;4.80;3.30;;;;;;;16.62;60.18;100455.03;4936728;28;20240;-72
2023/07/23 02:49:58;;;;;;;3.07;2.77;;;;;;;16.66;60.13;100458.50;4937621;28;20215;-73
2023/07/23 02:52:24;;;;;;;3.57;3.27;;;;;;;16.69;60.05;100457.00;4939534;28;20214;-73
2023/07/23 02:54:51;;;;;;;3.27;2.83;;;;;;;16.71;59.96;100466.16;4938939;28;20774;-73
2023/07/23 02:57:17;;;;;;;4.57;3.23;;;;;;;16.76;60.94;100465.06;4954368;28;21515;-72
2023/07/23 02:59:43;;;;;;;5.47;2.87;;;;;;;16.77;60.45;100467.34;4936576;28;20213;-72
2023/07/23 03:02:10;;;;;;;5.23;3.10;;;;;;;16.80;60.01;100466.63;4938966;28;20223;-73
2023/07/23 03:04:36;;;;;;;4.23;3.43;;;;;;;16.83;59.88;100465.91;4936115;28;20917;-73
2023/07/23 03:07:04;;;;;;;3.47;2.97;;;;;;;16.85;59.80;100468.94;4938717;28;20986;-72
2023/07/23 03:09:30;;;;;;;5.73;3.47;;;;;;;16.88;59.30;100475.44;4936252;28;21481;-73
2023/07/23 03:11:57;;;;;;;5.50;3.53;;;;;;;16.91;60.08;100485.38;4938727;28;20915;-73
2023/07/23 03:14:23;;;;;;;5.83;3.17;;;;;;;16.93;60.33;100486.53;4937252;28;21973;-73
2023/07/23 03:16:49;;;;;;;4.53;3.30;;;;;;;16.95;59.93;100486.94;4952266;28;21586;-73
2023/07/23 03:19:16;;;;;;;4.80;3.30;;;;;;;16.99;60.25;100484.28;4953336;28;20220;-73
2023/07/23 03:21:42;;;;;;;3.63;2.97;;;;;;;17.00;60.31;100485.81;4933815;28;20227;-73
2023/07/23 03:24:10;;;;;;;4.30;3.10;;;;;;;17.03;60.62;100471.75;4939907;28;20207;-73
2023/07/23 03:26:36;;;;;;;4.13;3.63;;;;;;;17.06;60.18;100482.44;4936051;28;20236;-73
2023/07/23 03:29:02;;;;;;;4.17;3.07;;;;;;;17.08;60.83;100474.81;4939419;28;20217;-73
2023/07/23 03:31:29;;;;;;;3.90;3.03;;;;;;;17.09;60.85;100481.72;4937771;28;20227;-72
2023/07/23 03:33:55;;;;;;;4.03;3.20;;;;;;;17.11;61.04;100479.44;4935865;28;21176;-73
2023/07/23 03:36:21;;;;;;;4.80;3.57;;;;;;;17.13;62.34;100479.06;4933651;28;20252;-73
2023/07/23 03:38:48;;;;;;;3.73;3.23;;;;;;;17.14;62.05;100483.25;4955163;28;20222;-73
2023/07/23 03:41:16;;;;;;;4.60;3.37;;;;;;;17.16;62.11;100494.31;4937256;28;20881;-73
2023/07/23 03:43:42;;;;;;;4.47;3.03;;;;;;;17.17;62.41;100477.94;4936813;28;20592;-73
2023/07/23 03:46:08;;;;;;;4.63;3.20;;;;;;;17.17;62.40;100485.94;4937591;28;20241;-73
2023/07/23 03:48:34;;;;;;;5.80;3.37;;;;;;;17.20;62.60;100484.44;4936735;28;20220;-73
2023/07/23 03:51:01;;;;;;;4.17;3.47;;;;;;;17.20;62.50;100485.22;4939139;28;20223;-72
2023/07/23 03:53:27;;;;;;;4.17;3.73;;;;;;;17.22;63.26;100492.84;4949827;28;20226;-73
2023/07/23 03:55:53;;;;;;;4.00;3.53;;;;;;;17.22;64.03;100496.28;4936527;28;20216;-72
2023/07/23 03:58:21;;;;;;;6.23;3.60;;;;;;;17.21;64.55;100504.66;4937240;28;20619;-72
2023/07/23 04:00:47;;;;;;;5.77;3.40;;;;;;;17.21;64.71;100505.44;4936159;28;20217;-73
2023/07/23 04:03:14;;;;;;;5.60;3.87;;;;;;;17.21;65.27;100504.66;4938153;28;20213;-73
2023/07/23 04:05:40;;;;;;;5.03;3.80;;;;;;;17.21;65.33;100497.41;4937691;28;20227;-73
2023/07/23 04:08:06;;;;;;;5.17;3.93;;;;;;;17.21;65.37;100500.09;4949456;28;20240;-73
2023/07/23 04:10:33;;;;;;;3.80;3.40;;;;;;;17.22;65.89;100493.63;4934356;28;20554;-73
2023/07/23 04:13:03;;;;;;;7.87;3.70;;;;;;;17.24;66.93;100498.59;4952425;28;20225;-73
2023/07/23 04:15:31;;;;;;;4.70;3.77;;;;;;;17.24;67.47;100498.59;4937299;28;20768;-73
2023/07/23 04:17:57;;;;;;;4.60;3.40;;;;;;;17.23;67.55;100505.81;4954326;28;20226;-73
2023/07/23 04:20:24;;;;;;;5.30;3.57;;;;;;;17.25;67.23;100498.22;4937186;28;21676;-72
2023/07/23 04:22:50;;;;;;;6.57;4.50;;;;;;;17.26;67.67;100502.41;4937800;28;20231;-73
2023/07/23 04:25:16;;;;;;;4.80;3.90;;;;;;;17.28;67.56;100507.38;4938710;28;20209;-73
2023/07/23 04:27:43;;;;;;;5.13;4.10;;;;;;;17.30;67.21;100505.09;4936134;28;20234;-73
2023/07/23 04:30:10;;;;;;;4.43;3.73;;;;;;;17.31;67.75;100502.06;4939495;28;20208;-73
2023/07/23 04:32:38;;;;;;;4.77;3.67;;;;;;;17.34;67.20;100498.63;4936306;28;20243;-73
2023/07/23 04:35:06;;;;;;;4.23;3.60;;;;;;;17.38;67.64;100499.47;4937060;28;21182;-73
2023/07/23 04:37:32;;;;;;;5.80;3.87;;;;;;;17.40;67.65;100491.09;4939207;28;20236;-73
2023/07/23 04:39:58;;;;;;;4.70;3.87;;;;;;;17.44;67.77;100492.63;4937789;28;20819;-73
2023/07/23 04:42:25;;;;;;;5.03;3.63;;;;;;;17.49;67.83;100491.53;4936845;28;20218;-73
2023/07/23 04:44:51;;;;;;;3.97;3.43;;;;;;;17.52;67.04;100488.09;4938420;28;20264;-73
2023/07/23 04:47:17;;;;;;;5.57;3.43;;;;;;;17.55;66.92;100490.78;4937890;28;20251;-73
2023/07/23 04:49:45;;;;;;;5.17;3.40;;;;;;;17.59;68.05;100494.25;4936568;28;20219;-73
2023/07/23 04:52:11;;;;;;;4.27;3.70;;;;;;;17.61;67.87;100489.31;4937244;28;20594;-73
2023/07/23 04:54:38;;;;;;;6.90;4.20;;;;;;;17.65;67.12;100492.00;4937266;28;20227;-73
2023/07/23 04:57:04;;;;;;;4.80;3.60;;;;;;;17.67;67.41;100487.81;4938202;28;20308;-73
2023/07/23 04:59:31;;;;;;;4.10;3.67;;;;;;;17.70;66.97;100483.63;4936616;28;20217;-73
2023/07/23 05:01:57;;;;;;;5.80;3.53;;;;;;;17.73;66.89;100483.63;4936256;28;20216;-73
2023/07/23 05:04:23;;;;;;;4.70;3.80;;;;;;;17.76;66.86;100492.81;4937677;28;20589;-73
2023/07/23 05:06:51;;;;;;;7.30;3.67;;;;;;;17.79;67.27;100502.72;4936864;28;20681;-73
2023/07/23 05:09:18;;;;;;;4.17;3.20;;;;;;;17.82;66.76;100494.75;4938456;28;20210;-73
2023/07/23 05:11:44;;;;;;;3.43;3.03;;;;;;;17.86;67.37;100492.84;4936320;28;20221;-73
2023/07/23 05:14:10;;;;;;;5.00;3.60;;;;;;;17.90;67.33;100496.28;4935172;28;20673;-73
2023/07/23 05:16:36;;;;;;;7.53;3.63;;;;;;;17.94;66.32;100505.09;4936222;28;20256;-73
2023/07/23 05:19:03;;;;;;;4.53;3.40;;;;;;;17.98;66.26;100515.78;4935325;28;20236;-72
2023/07/23 05:21:30;;;;;;;7.83;3.00;;;;;;;18.00;65.22;100505.50;4938913;28;20220;-74
2023/07/23 05:23:58;;;;;;;5.23;3.40;;;;;;;18.03;65.56;100510.84;4936893;28;20274;-73
2023/07/23 05:26:24;;;;;;;3.43;2.90;;;;;;;18.07;64.99;100511.63;4933340;28;20232;-74
2023/07/23 05:28:50;;;;;;;5.27;3.40;;;;;;;18.11;64.47;100517.00;4935597;28;21124;-73
2023/07/23 05:31:17;;;;;;;4.33;3.13;;;;;;;18.14;64.25;100514.34;4936825;28;20217;-73
2023/07/23 05:33:43;;;;;;;4.53;3.10;;;;;;;18.18;65.70;100515.13;4936002;28;20213;-73
2023/07/23 05:36:10;;;;;;;5.43;3.20;;;;;;;18.23;64.59;100522.00;4938559;28;20247;-73
2023/07/23 05:38:36;;;;;;;6.97;4.43;;;;;;;18.28;65.32;100527.75;4936015;28;20233;-73
2023/07/23 05:41:04;;;;;;;6.40;3.77;;;;;;;18.38;64.78;100527.00;4936518;28;20215;-73
2023/07/23 05:43:30;;;;;;;5.67;3.73;;;;;;;18.50;65.30;100532.03;4935815;28;20686;-73
2023/07/23 05:45:57;;;;;;;3.90;3.13;;;;;;;18.62;63.23;100525.56;4935257;28;20255;-73
2023/07/23 05:48:23;;;;;;;3.83;3.20;;;;;;;18.73;63.36;100529.00;4938607;28;20212;-73
2023/07/23 05:50:50;;;;;;;5.03;2.80;;;;;;;18.85;63.89;100526.72;4934851;28;20213;-73
2023/07/23 05:53:16;;;;;;;4.03;3.00;;;;;;;18.94;63.38;100531.69;4937223;28;20223;-73
2023/07/23 05:55:43;;;;;;;3.83;2.83;;;;;;;19.01;61.90;100534.38;4935254;28;20216;-73
2023/07/23 05:58:10;;;;;;;4.50;2.97;;;;;;;19.08;62.43;100531.69;4935834;28;20229;-73
2023/07/23 06:00:36;;;;;;;3.53;2.87;;;;;;;19.15;62.39;100537.78;4941656;28;20224;-73
2023/07/23 06:03:03;;;;;;;4.47;3.20;;;;;;;19.21;62.00;100535.50;4940013;28;20240;-73
2023/07/23 06:05:29;;;;;;;4.63;3.33;;;;;;;19.28;61.66;100532.84;4941442;28;21443;-73
2023/07/23 06:07:55;;;;;;;4.97;3.50;;;;;;;19.33;61.09;100533.22;4939618;28;20229;-73
2023/07/23 06:10:22;;;;;;;4.13;3.17;;;;;;;19.36;61.01;100527.09;4939194;28;20221;-73
2023/07/23 06:12:48;;;;;;;4.90;3.13;;;;;;;19.42;61.14;100538.19;4940089;28;20228;-73
2023/07/23 06:15:16;;;;;;;7.00;3.13;;;;;;;19.47;60.23;100537.81;4940891;28;20688;-73
2023/07/23 06:17:42;;;;;;;4.97;2.87;;;;;;;19.55;60.82;100526.69;4939289;28;20240;-73
2023/07/23 06:20:09;;;;;;;3.30;2.90;;;;;;;19.59;60.71;100532.81;4937789;28;20213;-73
2023/07/23 06:22:36;;;;;;;8.87;3.23;;;;;;;19.64;60.19;100535.09;4940350;28;20221;-73
2023/07/23 06:25:02;;;;;;;4.20;2.80;;;;;;;19.67;60.12;100534.28;4938404;28;20228;-73
2023/07/23 06:27:28;;;;;;;6.27;3.20;;;;;;;19.75;60.26;100540.41;4941776;28;20323;-73
2023/07/23 06:29:55;;;;;;;5.57;3.33;;;;;;;19.82;60.72;100527.75;4938598;28;20224;-73
2023/07/23 06:32:22;;;;;;;4.80;3.50;;;;;;;19.90;59.83;100525.81;4940742;28;20224;-73
2023/07/23 06:34:49;;;;;;;3.23;2.90;;;;;;;19.99;59.86;100518.13;4938748;28;20228;-73
2023/07/23 06:37:15;;;;;;;4.13;2.83;;;;;;;20.09;59.75;100511.97;4940115;28;20830;-73
2023/07/23 06:39:41;;;;;;;6.80;3.20;;;;;;;20.13;58.64;100521.53;4940977;28;20688;-73
2023/07/23 06:42:08;;;;;;;3.20;2.80;;;;;;;20.20;57.86;100518.06;4939053;28;20209;-73
2023/07/23 06:44:34;;;;;;;5.27;2.73;;;;;;;20.31;58.25;100508.03;4938446;28;20810;-72
2023/07/23 06:47:00;;;;;;;5.73;3.10;;;;;;;20.41;58.75;100516.03;4938837;28;20237;-73
2023/07/23 06:49:30;;;;;;;4.27;3.20;;;;;;;20.48;57.68;100512.53;4937732;28;21728;-72
2023/07/23 06:51:56;;;;;;;3.47;3.10;;;;;;;20.53;56.93;100504.81;4939725;28;20819;-73
2023/07/23 06:54:23;;;;;;;4.10;3.00;;;;;;;20.62;57.80;100497.09;4941276;28;20222;-73
2023/07/23 06:56:51;;;;;;;4.17;2.80;;;;;;;20.65;56.40;100507.03;4939419;28;20225;-73
2023/07/23 06:59:18;;;;;;;3.97;3.30;;;;;;;20.73;56.73;100500.47;4937080;28;20270;-73
2023/07/23 07:01:44;;;;;;;5.53;3.50;;;;;;;20.82;56.80;100502.69;4940060;28;20896;-73
2023/07/23 07:04:10;;;;;;;3.37;3.00;;;;;;;20.91;56.56;100501.09;4938733;28;20841;-73
2023/07/23 07:06:38;;;;;;;3.53;2.90;;;;;;;21.00;56.39;100504.09;4940222;28;20241;-73
2023/07/23 07:09:04;;;;;;;4.30;3.23;;;;;;;21.07;55.23;100506.75;4938008;28;21482;-73
2023/07/23 07:11:31;;;;;;;3.47;2.83;;;;;;;21.15;55.26;100510.88;4936827;28;20589;-73
2023/07/23 07:13:57;;;;;;;4.77;3.40;;;;;;;21.25;55.63;100514.63;4936337;28;20213;-73
2023/07/23 07:16:23;;;;;;;3.30;2.80;;;;;;;21.33;54.71;100516.88;4938105;28;21360;-73
2023/07/23 07:18:50;;;;;;;3.57;3.00;;;;;;;21.36;53.07;100518.00;4939177;28;20221;-73
2023/07/23 07:21:16;;;;;;;5.20;3.03;;;;;;;21.46;54.09;100506.34;4938282;28;21469;-73
2023/07/23 07:23:44;;;;;;;4.20;3.37;;;;;;;21.53;54.46;100515.09;4937228;28;20840;-73
2023/07/23 07:26:10;;;;;;;5.37;2.80;;;;;;;21.61;54.47;100505.03;4937763;28;20233;-73
2023/07/23 07:28:36;;;;;;;4.93;2.83;;;;;;;21.70;53.85;100503.44;4936249;28;21328;-73
2023/07/23 07:31:04;;;;;;;5.23;2.87;;;;;;;21.81;53.12;100506.00;4938146;28;20217;-73
2023/07/23 07:33:30;;;;;;;3.57;2.97;;;;;;;21.90;52.62;100498.97;4939320;28;20209;-73
2023/07/23 07:35:58;;;;;;;4.17;2.80;;;;;;;22.00;52.81;100508.81;4933804;28;22481;-73
2023/07/23 07:38:26;;;;;;;3.70;3.30;;;;;;;22.10;52.20;100496.41;4938642;28;20228;-73
2023/07/23 07:40:56;;;;;;;3.80;2.93;;;;;;;22.19;51.69;100492.03;4936871;28;20532;-73
2023/07/23 07:43:22;;;;;;;4.37;3.17;;;;;;;22.33;53.80;100497.25;4937435;28;20307;-73
2023/07/23 07:45:49;;;;;;;3.80;2.87;;;;;;;22.43;52.38;100495.56;4940903;28;20213;-73
2023/07/23 07:48:20;;;;;;;4.27;3.13;;;;;;;22.51;52.44;100495.06;4936967;28;20315;-73
2023/07/23 07:50:48;;;;;;;3.87;2.77;;;;;;;22.58;50.37;100496.91;4936793;28;20224;-73
2023/07/23 07:53:14;;;;;;;4.37;3.30;;;;;;;22.67;51.87;100495.19;4936958;28;20213;-73
2023/07/23 07:55:42;;;;;;;3.77;3.00;;;;;;;22.76;51.30;100497.41;4939610;28;20220;-73
2023/07/23 07:58:12;;;;;;;3.40;2.60;;;;;;;22.80;52.04;100493.47;4937336;28;20286;-73
2023/07/23 08:00:40;;;;;;;3.97;2.87;;;;;;;22.85;49.97;100500.31;4940107;28;20244;-73
2023/07/23 08:03:07;;;;;;;3.55;3.00;;;;;;;22.89;49.91;100499.09;4937396;28;21291;-73
2023/07/23 08:05:34;;;;;;;4.63;2.90;;;;;;;22.95;50.46;100488.59;4938796;28;20217;-73
2023/07/23 08:08:00;;;;;;;4.80;3.03;;;;;;;23.00;49.73;100488.13;4935696;28;20233;-73
2023/07/23 08:10:27;;;;;;;4.38;3.05;;;;;;;23.07;50.61;100485.34;4935515;28;20213;-73
2023/07/23 08:12:55;;;;;;;5.78;3.58;;;;;;;23.14;48.79;100488.66;4938640;28;20291;-73
2023/07/23 08:15:23;;;;;;;4.40;3.53;;;;;;;23.22;48.66;100483.16;4936788;28;20217;-73
2023/07/23 08:17:50;;;;;;;4.78;3.45;;;;;;;23.27;48.42;100489.59;4936840;28;20229;-73
2023/07/23 08:20:18;;;;;;;5.78;4.10;;;;;;;23.36;49.35;100486.34;4935781;28;20229;-73
2023/07/23 08:22:44;;;;;;;4.28;2.70;;;;;;;23.38;47.77;100488.66;4936710;28;20225;-73
2023/07/23 08:25:12;;;;;;;7.15;4.85;;;;;;;23.44;47.60;100479.69;4938153;28;20213;-73
2023/07/23 08:27:39;;;;;;;4.50;2.90;;;;;;;23.42;47.45;100476.63;4939122;28;20872;-73
2023/07/23 08:30:08;;;;;;;5.18;3.25;;;;;;;23.46;47.80;100474.63;4934837;28;21338;-73
2023/07/23 08:32:36;;;;;;;3.50;2.90;;;;;;;23.47;47.37;100473.44;4938592;28;20213;-73
2023/07/23 08:35:03;;;;;;;5.70;3.42;;;;;;;23.52;47.32;100481.03;4935365;28;20213;-73
2023/07/23 08:37:30;;;;;;;4.15;2.92;;;;;;;23.60;47.08;100472.41;4938350;28;20326;-73
2023/07/23 08:39:57;;;;;;;4.80;2.88;;;;;;;23.70;48.06;100473.38;4937191;28;20236;-73
2023/07/23 08:43:00;;;;;;;3.63;3.22;;;;;;;23.83;47.06;100483.13;4937654;28;20320;-73
2023/07/23 08:45:56;;;;;;;5.03;2.97;;;;;;;24.01;46.85;100463.91;4936208;28;21640;-73
2023/07/23 08:48:42;;;;;;;3.88;3.00;;;;;;;24.17;46.62;100461.97;4937908;28;20307;-73
2023/07/23 08:51:10;;;;;;;3.42;2.92;;;;;;;24.31;44.75;100460.16;4936028;28;20205;-73
2023/07/23 08:53:37;;;;;;;6.30;3.20;;;;;;;24.37;44.58;100467.31;4938680;28;20221;-73
2023/07/23 08:56:04;;;;;;;3.45;2.60;;;;;;;24.51;45.06;100464.28;4933296;28;20232;-73
2023/07/23 08:58:30;;;;;;;3.72;2.65;;;;;;;24.66;45.98;100454.69;4954001;28;20299;-74
2023/07/23 09:00:57;;;;;;;5.13;3.08;;;;;;;24.82;44.14;100448.53;4953714;28;20212;-73
2023/07/23 09:03:26;;;;;;;4.00;3.20;;;;;;;24.88;43.66;100463.03;4955170;28;20208;-73
2023/07/23 09:05:52;;;;;;;3.50;2.90;;;;;;;24.98;43.35;100454.66;4952678;28;22226;-73
2023/07/23 09:08:18;;;;;;;3.55;2.75;;;;;;;25.05;42.02;100446.38;4955242;28;20216;-74
2023/07/23 09:10:45;;;;;;;5.03;2.83;;;;;;;25.16;44.12;100449.53;4953921;28;20217;-73
2023/07/23 09:13:14;;;;;;;2.83;2.33;;;;;;;25.25;42.67;100457.81;4955566;28;20212;-74
2023/07/23 09:15:40;;;;;;;6.50;3.40;;;;;;;25.27;41.40;100458.16;4957432;28;20208;-74
2023/07/23 09:18:08;;;;;;;3.85;2.67;;;;;;;25.31;41.12;100444.53;4953602;28;20228;-73
2023/07/23 09:20:35;;;;;;;6.85;3.28;;;;;;;25.42;41.98;100453.88;4954983;28;20239;-74
2023/07/23 09:23:05;;;;;;;5.00;3.22;;;;;;;25.47;41.47;100455.28;4967923;28;20247;-74
2023/07/23 09:25:32;;;;;;;3.83;2.63;;;;;;;25.50;40.53;100443.63;4953147;28;21077;-74
2023/07/23 09:27:58;;;;;;;3.28;2.97;;;;;;;25.54;41.97;100444.28;4954676;28;20838;-73
2023/07/23 09:30:27;;;;;;;5.65;2.63;;;;;;;25.65;41.79;100440.06;4954539;28;20433;-74
2023/07/23 09:32:56;;;;;;;3.72;2.83;;;;;;;25.75;40.61;100438.28;4953347;28;20212;-74
2023/07/23 09:35:23;;;;;;;4.20;2.78;;;;;;;25.84;41.61;100433.00;4951817;28;20220;-74
2023/07/23 09:37:56;;;;;;;3.83;2.88;;;;;;;25.96;40.64;100432.25;4953370;28;20232;-73
2023/07/23 09:40:22;;;;;;;3.65;2.83;;;;;;;26.06;39.21;100439.28;4955593;28;20232;-73
2023/07/23 09:42:49;;;;;;;4.30;2.83;;;;;;;26.09;38.01;100428.34;4955842;28;20209;-74
2023/07/23 09:45:15;;;;;;;3.85;2.83;;;;;;;26.17;38.10;100420.78;4955264;28;20208;-74
2023/07/23 09:47:42;;;;;;;3.50;2.60;;;;;;;26.28;39.76;100432.03;4956191;28;20482;-74
2023/07/23 09:50:13;;;;;;;3.38;2.55;;;;;;;26.37;40.47;100422.03;4953651;28;20827;-73
2023/07/23 09:52:39;;;;;;;2.90;2.50;;;;;;;26.49;37.86;100415.88;4955597;28;21010;-73
2023/07/23 09:55:09;;;;;;;3.53;2.70;;;;;;;26.59;38.51;100422.91;4957762;28;20212;-73
2023/07/23 09:57:37;;;;;;;3.83;2.20;;;;;;;26.64;36.23;100421.59;4954728;28;20728;-74
2023/07/23 10:00:05;;;;;;;5.18;2.63;;;;;;;26.74;38.98;100423.19;4954256;28;20741;-73
2023/07/23 10:02:40;;;;;;;3.38;2.65;;;;;;;26.91;35.33;100411.00;4956209;28;20211;-74
2023/07/23 10:05:08;;;;;;;3.25;2.67;;;;;;;27.04;36.08;100415.16;4953691;28;20503;-73
2023/07/23 10:07:37;;;;;;;4.40;2.80;;;;;;;27.19;36.74;100407.31;4953859;28;20232;-74
2023/07/23 10:10:04;;;;;;;2.72;2.22;;;;;;;27.28;36.11;100408.13;4955091;28;21747;-73
2023/07/23 10:12:32;;;;;;;2.72;2.42;;;;;;;27.34;34.79;100398.22;4955221;28;20208;-74
2023/07/23 10:14:58;;;;;;;3.15;2.35;;;;;;;27.39;37.31;100392.22;4953268;28;20215;-74
2023/07/23 10:17:26;;;;;;;5.50;2.60;;;;;;;27.53;34.86;100396.38;4955781;28;20985;-74
2023/07/23 10:19:54;;;;;;;3.40;2.45;;;;;;;27.63;36.31;100387.84;4954719;28;20313;-74
2023/07/23 10:22:22;;;;;;;3.40;2.70;;;;;;;27.74;34.82;100390.13;4955778;28;20220;-74
2023/07/23 10:24:51;;;;;;;6.20;2.50;;;;;;;27.83;33.12;100380.13;4968823;28;21218;-74
2023/07/23 10:27:18;;;;;;;5.43;2.60;;;;;;;27.95;35.16;100383.91;4954870;28;20232;-74
2023/07/23 10:30:20;;;;;;;5.82;2.40;;;;;;;28.09;35.04;100373.28;4954437;28;21869;-73
2023/07/23 10:33:06;;;;;;;3.17;2.35;;;;;;;28.23;33.78;100375.41;4956070;28;20215;-73
2023/07/23 10:35:59;;;;;;;2.33;2.08;;;;;;;28.34;32.20;100358.69;4957031;28;20678;-74
2023/07/23 10:38:26;;;;;;;3.60;2.28;;;;;;;28.40;33.25;100357.66;4954828;28;20232;-73
2023/07/23 10:40:53;;;;;;;3.78;2.65;;;;;;;28.54;33.14;100361.75;4954588;28;20453;-73
2023/07/23 10:43:19;;;;;;;3.50;2.30;;;;;;;28.53;31.34;100350.13;4956507;28;20223;-74
2023/07/23 10:45:49;;;;;;;2.83;2.47;;;;;;;28.62;32.10;100346.63;4959863;28;20218;-74
2023/07/23 10:48:17;;;;;;;2.70;2.17;;;;;;;28.63;31.16;100345.44;4958100;28;20220;-74
2023/07/23 10:51:00;;;;;;;2.58;2.28;;;;;;;28.72;33.52;100340.00;4960165;28;20232;-74
2023/07/23 10:53:31;;;;;;;2.83;2.40;;;;;;;28.78;32.47;100338.19;4958084;28;21017;-74
2023/07/23 10:56:00;;;;;;;4.07;2.10;;;;;;;28.77;29.79;100328.53;4958907;28;21153;-73
2023/07/23 10:58:27;;;;;;;2.92;2.08;;;;;;;28.87;31.53;100333.50;4962088;28;20224;-74
2023/07/23 11:00:58;;;;;;;2.33;2.13;;;;;;;28.93;29.73;100323.53;4953796;28;20224;-74
2023/07/23 11:03:26;;;;;;;4.18;2.10;;;;;;;29.01;30.95;100316.56;4960928;28;20212;-74
2023/07/23 11:05:53;;;;;;;2.25;1.85;;;;;;;29.00;30.46;100314.34;4956914;28;20213;-74
2023/07/23 11:08:23;;;;;;;3.03;2.22;;;;;;;28.99;30.03;100297.25;4958335;28;20219;-74
2023/07/23 11:10:55;;;;;;;2.50;2.15;;;;;;;29.06;30.86;100305.09;4957857;28;20219;-74
2023/07/23 11:13:22;;;;;;;3.03;2.28;;;;;;;29.12;31.17;100303.28;4958161;28;20944;-74
2023/07/23 11:15:49;;;;;;;2.47;2.22;;;;;;;29.22;32.67;100291.13;4957472;28;20216;-74
2023/07/23 11:18:16;;;;;;;2.72;2.25;;;;;;;29.39;30.44;100288.81;4959098;28;20248;-74
2023/07/23 11:20:46;;;;;;;2.45;2.25;;;;;;;29.52;31.29;100287.38;4955930;28;20264;-74
2023/07/23 11:23:13;;;;;;;2.45;1.88;;;;;;;29.58;31.87;100280.13;4957773;28;20327;-74
2023/07/23 11:25:40;;;;;;;4.53;1.90;;;;;;;29.70;30.27;100279.19;4958506;28;20698;-74